LRBC - BACAU/GEORGE ENESCU

Compiled: 17:52:59 on 20/10/2018

Latest METAR/SPECI Reports

METAR LRBC 201730Z 35011KT 7000 NSC 17/09 Q1020=

Previous reports

METAR LRBC 201700Z 34008KT 7000 NSC 16/10 Q1020=
METAR LRBC 201630Z 33004KT 7000 NSC 16/10 Q1020=
METAR LRBC 201600Z 31004KT 8000 -RA NSC 16/10 Q1020=
METAR LRBC 201530Z 35005KT 9000 FEW050 17/10 Q1020=

Latest TAF report

TAF LRBC 201700Z 2018/2103 36010KT CAVOK PROB30 TEMPO 2018/2023 BKN010=

Valid WARNINGS

No valid warnings for LRBC